sensor_id;sensor_type;location;lat;lon;timestamp;temperature;humidity
13808;DHT22;40769;51.512;5.494;2022-10-17T00:00:41;17.20;99.90
13808;DHT22;40769;51.512;5.494;2022-10-17T00:03:08;17.30;99.90
13808;DHT22;40769;51.512;5.494;2022-10-17T00:05:37;17.30;99.90
13808;DHT22;40769;51.512;5.494;2022-10-17T00:08:03;17.30;99.90
13808;DHT22;40769;51.512;5.494;2022-10-17T00:10:29;17.40;99.90
13808;DHT22;40769;51.512;5.494;2022-10-17T00:12:54;17.40;99.90
13808;DHT22;40769;51.512;5.494;2022-10-17T00:15:20;17.40;99.90
13808;DHT22;40769;51.512;5.494;2022-10-17T00:17:46;17.40;99.90
13808;DHT22;40769;51.512;5.494;2022-10-17T00:20:12;17.40;99.90
13808;DHT22;40769;51.512;5.494;2022-10-17T00:22:38;17.40;99.90
13808;DHT22;40769;51.512;5.494;2022-10-17T00:25:04;17.50;99.90
13808;DHT22;40769;51.512;5.494;2022-10-17T00:27:29;17.40;99.90
13808;DHT22;40769;51.512;5.494;2022-10-17T00:29:55;17.40;99.90
13808;DHT22;40769;51.512;5.494;2022-10-17T00:32:21;17.60;99.90
13808;DHT22;40769;51.512;5.494;2022-10-17T00:34:46;17.40;99.90
13808;DHT22;40769;51.512;5.494;2022-10-17T00:37:12;18.00;99.90
13808;DHT22;40769;51.512;5.494;2022-10-17T00:39:37;17.60;99.90
13808;DHT22;40769;51.512;5.494;2022-10-17T00:42:03;17.50;99.90
13808;DHT22;40769;51.512;5.494;2022-10-17T00:47:00;17.40;99.90
13808;DHT22;40769;51.512;5.494;2022-10-17T00:49:29;17.50;99.90
13808;DHT22;40769;51.512;5.494;2022-10-17T00:51:59;17.50;99.90
13808;DHT22;40769;51.512;5.494;2022-10-17T00:54:29;17.50;99.90
13808;DHT22;40769;51.512;5.494;2022-10-17T00:56:56;17.50;99.90
13808;DHT22;40769;51.512;5.494;2022-10-17T00:59:22;17.50;99.90
13808;DHT22;40769;51.512;5.494;2022-10-17T01:02:01;17.50;99.90
13808;DHT22;40769;51.512;5.494;2022-10-17T01:04:27;17.50;99.90
13808;DHT22;40769;51.512;5.494;2022-10-17T01:06:53;17.50;99.90
13808;DHT22;40769;51.512;5.494;2022-10-17T01:09:18;17.40;99.90
13808;DHT22;40769;51.512;5.494;2022-10-17T01:17:43;17.50;99.90
13808;DHT22;40769;51.512;5.494;2022-10-17T01:20:28;17.50;99.90
13808;DHT22;40769;51.512;5.494;2022-10-17T01:26:00;17.50;99.90
13808;DHT22;40769;51.512;5.494;2022-10-17T01:31:24;17.50;99.90
13808;DHT22;40769;51.512;5.494;2022-10-17T01:34:06;17.70;99.90
13808;DHT22;40769;51.512;5.494;2022-10-17T01:37:19;17.50;99.90
13808;DHT22;40769;51.512;5.494;2022-10-17T01:39:52;17.50;99.90
13808;DHT22;40769;51.512;5.494;2022-10-17T01:42:27;17.70;99.90
13808;DHT22;40769;51.512;5.494;2022-10-17T01:45:15;17.60;99.90
13808;DHT22;40769;51.512;5.494;2022-10-17T01:47:48;17.60;99.90
13808;DHT22;40769;51.512;5.494;2022-10-17T01:50:27;17.70;99.90
13808;DHT22;40769;51.512;5.494;2022-10-17T01:53:05;18.80;99.90
13808;DHT22;40769;51.512;5.494;2022-10-17T01:55:51;17.60;99.90
13808;DHT22;40769;51.512;5.494;2022-10-17T01:58:37;17.80;99.90
13808;DHT22;40769;51.512;5.494;2022-10-17T02:01:06;17.60;99.90
13808;DHT22;40769;51.512;5.494;2022-10-17T02:03:33;18.40;99.90
13808;DHT22;40769;51.512;5.494;2022-10-17T02:06:00;17.60;99.90
13808;DHT22;40769;51.512;5.494;2022-10-17T02:08:47;17.60;99.90
13808;DHT22;40769;51.512;5.494;2022-10-17T02:11:21;17.60;99.90
13808;DHT22;40769;51.512;5.494;2022-10-17T02:22:10;17.70;99.90
13808;DHT22;40769;51.512;5.494;2022-10-17T02:24:44;17.70;99.90
13808;DHT22;40769;51.512;5.494;2022-10-17T02:27:38;17.70;99.90
13808;DHT22;40769;51.512;5.494;2022-10-17T02:33:27;17.70;99.90
13808;DHT22;40769;51.512;5.494;2022-10-17T02:35:51;17.70;99.90
13808;DHT22;40769;51.512;5.494;2022-10-17T02:38:19;17.70;99.90
13808;DHT22;40769;51.512;5.494;2022-10-17T02:40:46;17.80;99.90
13808;DHT22;40769;51.512;5.494;2022-10-17T02:43:14;17.70;99.90
13808;DHT22;40769;51.512;5.494;2022-10-17T02:45:40;17.80;99.90
13808;DHT22;40769;51.512;5.494;2022-10-17T02:48:29;17.80;99.90
13808;DHT22;40769;51.512;5.494;2022-10-17T02:51:35;17.80;99.90
13808;DHT22;40769;51.512;5.494;2022-10-17T02:57:06;17.80;99.90
13808;DHT22;40769;51.512;5.494;2022-10-17T02:59:34;17.90;99.90
13808;DHT22;40769;51.512;5.494;2022-10-17T03:02:05;17.90;99.90
13808;DHT22;40769;51.512;5.494;2022-10-17T03:04:32;17.90;99.90
13808;DHT22;40769;51.512;5.494;2022-10-17T03:06:57;17.90;99.90
13808;DHT22;40769;51.512;5.494;2022-10-17T03:09:23;17.90;99.90
13808;DHT22;40769;51.512;5.494;2022-10-17T03:11:49;17.90;99.90
13808;DHT22;40769;51.512;5.494;2022-10-17T03:14:15;17.90;99.90
13808;DHT22;40769;51.512;5.494;2022-10-17T03:16:40;18.00;99.90
13808;DHT22;40769;51.512;5.494;2022-10-17T03:19:06;18.00;99.90
13808;DHT22;40769;51.512;5.494;2022-10-17T03:21:32;17.90;99.90
13808;DHT22;40769;51.512;5.494;2022-10-17T03:23:57;17.90;99.90
13808;DHT22;40769;51.512;5.494;2022-10-17T03:26:23;17.90;99.90
13808;DHT22;40769;51.512;5.494;2022-10-17T03:28:49;18.00;99.90
13808;DHT22;40769;51.512;5.494;2022-10-17T03:31:15;17.90;99.90
13808;DHT22;40769;51.512;5.494;2022-10-17T03:33:41;17.90;99.90
13808;DHT22;40769;51.512;5.494;2022-10-17T03:36:09;18.10;99.90
13808;DHT22;40769;51.512;5.494;2022-10-17T03:38:35;18.00;99.90
13808;DHT22;40769;51.512;5.494;2022-10-17T03:41:01;18.00;99.90
13808;DHT22;40769;51.512;5.494;2022-10-17T03:43:27;17.90;99.90
13808;DHT22;40769;51.512;5.494;2022-10-17T03:45:53;18.00;99.90
13808;DHT22;40769;51.512;5.494;2022-10-17T03:48:19;18.00;99.90
13808;DHT22;40769;51.512;5.494;2022-10-17T03:50:44;18.00;99.90
13808;DHT22;40769;51.512;5.494;2022-10-17T03:53:10;18.10;99.90
13808;DHT22;40769;51.512;5.494;2022-10-17T03:55:36;18.10;99.90
13808;DHT22;40769;51.512;5.494;2022-10-17T03:58:01;18.10;99.90
13808;DHT22;40769;51.512;5.494;2022-10-17T04:00:27;18.10;99.90
13808;DHT22;40769;51.512;5.494;2022-10-17T04:02:53;18.20;99.90
13808;DHT22;40769;51.512;5.494;2022-10-17T04:05:18;18.30;99.90
13808;DHT22;40769;51.512;5.494;2022-10-17T04:07:44;18.20;99.90
13808;DHT22;40769;51.512;5.494;2022-10-17T04:10:09;18.20;99.90
13808;DHT22;40769;51.512;5.494;2022-10-17T04:12:35;18.20;99.90
13808;DHT22;40769;51.512;5.494;2022-10-17T04:15:01;18.20;99.90
13808;DHT22;40769;51.512;5.494;2022-10-17T04:17:28;18.30;99.90
13808;DHT22;40769;51.512;5.494;2022-10-17T04:19:54;18.30;99.90
13808;DHT22;40769;51.512;5.494;2022-10-17T04:22:19;18.40;99.90
13808;DHT22;40769;51.512;5.494;2022-10-17T04:24:45;18.40;99.90
13808;DHT22;40769;51.512;5.494;2022-10-17T04:27:10;18.40;99.90
13808;DHT22;40769;51.512;5.494;2022-10-17T04:29:36;18.40;99.90
13808;DHT22;40769;51.512;5.494;2022-10-17T04:32:01;18.50;99.90
13808;DHT22;40769;51.512;5.494;2022-10-17T04:34:27;18.50;99.90
13808;DHT22;40769;51.512;5.494;2022-10-17T04:36:53;18.60;99.90
13808;DHT22;40769;51.512;5.494;2022-10-17T04:39:19;18.50;99.90
13808;DHT22;40769;51.512;5.494;2022-10-17T04:41:44;18.60;99.90
13808;DHT22;40769;51.512;5.494;2022-10-17T04:44:10;18.60;99.90
13808;DHT22;40769;51.512;5.494;2022-10-17T04:46:35;18.60;99.90
13808;DHT22;40769;51.512;5.494;2022-10-17T04:49:01;18.60;99.90
13808;DHT22;40769;51.512;5.494;2022-10-17T04:51:27;18.60;99.90
13808;DHT22;40769;51.512;5.494;2022-10-17T04:53:53;18.60;99.90
13808;DHT22;40769;51.512;5.494;2022-10-17T04:56:20;18.70;99.90
13808;DHT22;40769;51.512;5.494;2022-10-17T04:58:47;18.60;99.90
13808;DHT22;40769;51.512;5.494;2022-10-17T05:01:19;18.70;99.90
13808;DHT22;40769;51.512;5.494;2022-10-17T05:03:45;18.70;99.90
13808;DHT22;40769;51.512;5.494;2022-10-17T05:06:13;18.70;99.90
13808;DHT22;40769;51.512;5.494;2022-10-17T05:08:39;18.60;99.90
13808;DHT22;40769;51.512;5.494;2022-10-17T05:11:18;18.70;99.90
13808;DHT22;40769;51.512;5.494;2022-10-17T05:13:43;18.70;99.90
13808;DHT22;40769;51.512;5.494;2022-10-17T05:16:09;18.70;99.90
13808;DHT22;40769;51.512;5.494;2022-10-17T05:18:35;18.90;99.90
13808;DHT22;40769;51.512;5.494;2022-10-17T05:21:02;19.20;99.90
13808;DHT22;40769;51.512;5.494;2022-10-17T05:23:29;18.80;99.90
13808;DHT22;40769;51.512;5.494;2022-10-17T05:25:55;18.90;99.90
13808;DHT22;40769;51.512;5.494;2022-10-17T05:28:21;18.90;99.90
13808;DHT22;40769;51.512;5.494;2022-10-17T05:30:47;18.90;99.90
13808;DHT22;40769;51.512;5.494;2022-10-17T05:33:12;18.90;99.90
13808;DHT22;40769;51.512;5.494;2022-10-17T05:35:38;19.20;99.90
13808;DHT22;40769;51.512;5.494;2022-10-17T05:38:03;18.90;99.90
13808;DHT22;40769;51.512;5.494;2022-10-17T05:40:29;19.00;99.90
13808;DHT22;40769;51.512;5.494;2022-10-17T05:42:55;19.00;99.90
13808;DHT22;40769;51.512;5.494;2022-10-17T05:45:20;19.00;99.90
13808;DHT22;40769;51.512;5.494;2022-10-17T05:47:46;19.10;99.90
13808;DHT22;40769;51.512;5.494;2022-10-17T05:50:12;19.10;99.90
13808;DHT22;40769;51.512;5.494;2022-10-17T05:52:37;19.10;99.90
13808;DHT22;40769;51.512;5.494;2022-10-17T05:55:04;19.20;99.90
13808;DHT22;40769;51.512;5.494;2022-10-17T05:57:30;19.20;99.90
13808;DHT22;40769;51.512;5.494;2022-10-17T05:59:56;19.20;99.90
13808;DHT22;40769;51.512;5.494;2022-10-17T06:02:21;19.20;99.90
13808;DHT22;40769;51.512;5.494;2022-10-17T06:04:47;19.20;99.90
13808;DHT22;40769;51.512;5.494;2022-10-17T06:07:14;19.20;99.90
13808;DHT22;40769;51.512;5.494;2022-10-17T06:09:39;19.30;99.90
13808;DHT22;40769;51.512;5.494;2022-10-17T06:12:06;19.30;99.90
13808;DHT22;40769;51.512;5.494;2022-10-17T06:14:32;19.30;99.90
13808;DHT22;40769;51.512;5.494;2022-10-17T06:16:57;19.30;99.90
13808;DHT22;40769;51.512;5.494;2022-10-17T06:19:23;19.30;99.90
13808;DHT22;40769;51.512;5.494;2022-10-17T06:21:49;19.40;99.90
13808;DHT22;40769;51.512;5.494;2022-10-17T06:24:15;19.40;99.90
13808;DHT22;40769;51.512;5.494;2022-10-17T06:26:40;19.40;99.90
13808;DHT22;40769;51.512;5.494;2022-10-17T06:29:06;19.40;99.90
13808;DHT22;40769;51.512;5.494;2022-10-17T06:31:31;19.40;99.90
13808;DHT22;40769;51.512;5.494;2022-10-17T06:33:57;19.50;99.90
13808;DHT22;40769;51.512;5.494;2022-10-17T06:36:23;19.50;99.90
13808;DHT22;40769;51.512;5.494;2022-10-17T06:38:48;19.60;99.90
13808;DHT22;40769;51.512;5.494;2022-10-17T06:41:15;19.60;99.90
13808;DHT22;40769;51.512;5.494;2022-10-17T06:43:44;19.50;99.90
13808;DHT22;40769;51.512;5.494;2022-10-17T06:46:14;19.50;99.90
13808;DHT22;40769;51.512;5.494;2022-10-17T06:48:40;19.60;99.90
13808;DHT22;40769;51.512;5.494;2022-10-17T06:51:05;19.60;99.90
13808;DHT22;40769;51.512;5.494;2022-10-17T06:53:34;19.70;99.90
13808;DHT22;40769;51.512;5.494;2022-10-17T06:56:00;19.60;99.90
13808;DHT22;40769;51.512;5.494;2022-10-17T06:58:32;19.70;99.90
13808;DHT22;40769;51.512;5.494;2022-10-17T07:01:03;19.70;99.90
13808;DHT22;40769;51.512;5.494;2022-10-17T07:03:29;19.80;99.90
13808;DHT22;40769;51.512;5.494;2022-10-17T07:05:56;19.80;99.90
13808;DHT22;40769;51.512;5.494;2022-10-17T07:08:22;19.80;99.90
13808;DHT22;40769;51.512;5.494;2022-10-17T07:10:48;20.00;99.90
13808;DHT22;40769;51.512;5.494;2022-10-17T07:13:14;20.10;99.90
13808;DHT22;40769;51.512;5.494;2022-10-17T07:15:40;20.10;99.90
13808;DHT22;40769;51.512;5.494;2022-10-17T07:18:06;20.20;99.90
13808;DHT22;40769;51.512;5.494;2022-10-17T07:20:31;20.20;99.90
13808;DHT22;40769;51.512;5.494;2022-10-17T07:22:57;20.20;99.90
13808;DHT22;40769;51.512;5.494;2022-10-17T07:25:23;20.30;99.90
13808;DHT22;40769;51.512;5.494;2022-10-17T07:27:49;20.20;99.90
13808;DHT22;40769;51.512;5.494;2022-10-17T07:30:15;20.50;99.90
13808;DHT22;40769;51.512;5.494;2022-10-17T07:32:41;20.40;99.90
13808;DHT22;40769;51.512;5.494;2022-10-17T07:35:08;20.30;99.90
13808;DHT22;40769;51.512;5.494;2022-10-17T07:37:33;20.40;99.90
13808;DHT22;40769;51.512;5.494;2022-10-17T07:39:59;20.50;99.90
13808;DHT22;40769;51.512;5.494;2022-10-17T07:42:25;20.50;99.90
13808;DHT22;40769;51.512;5.494;2022-10-17T07:44:52;20.50;99.90
13808;DHT22;40769;51.512;5.494;2022-10-17T07:47:18;20.50;99.90
13808;DHT22;40769;51.512;5.494;2022-10-17T07:49:44;20.50;99.90
13808;DHT22;40769;51.512;5.494;2022-10-17T07:52:13;20.50;99.90
13808;DHT22;40769;51.512;5.494;2022-10-17T07:54:39;20.50;99.90
13808;DHT22;40769;51.512;5.494;2022-10-17T07:57:08;20.50;99.90
13808;DHT22;40769;51.512;5.494;2022-10-17T07:59:34;20.60;99.90
13808;DHT22;40769;51.512;5.494;2022-10-17T08:02:01;20.60;99.90
13808;DHT22;40769;51.512;5.494;2022-10-17T08:04:27;20.60;99.90
13808;DHT22;40769;51.512;5.494;2022-10-17T08:06:52;20.60;99.90
13808;DHT22;40769;51.512;5.494;2022-10-17T08:09:18;20.60;99.90
13808;DHT22;40769;51.512;5.494;2022-10-17T08:11:46;20.60;99.90
13808;DHT22;40769;51.512;5.494;2022-10-17T08:14:13;20.60;99.90
13808;DHT22;40769;51.512;5.494;2022-10-17T08:16:43;20.70;99.90
13808;DHT22;40769;51.512;5.494;2022-10-17T08:19:09;20.80;99.90
13808;DHT22;40769;51.512;5.494;2022-10-17T08:21:36;20.70;99.90
13808;DHT22;40769;51.512;5.494;2022-10-17T08:24:02;20.70;99.90
13808;DHT22;40769;51.512;5.494;2022-10-17T08:26:28;20.80;99.90
13808;DHT22;40769;51.512;5.494;2022-10-17T08:28:55;20.80;99.90
13808;DHT22;40769;51.512;5.494;2022-10-17T08:31:20;20.80;99.90
13808;DHT22;40769;51.512;5.494;2022-10-17T08:33:47;20.80;99.90
13808;DHT22;40769;51.512;5.494;2022-10-17T08:36:16;20.80;99.90
13808;DHT22;40769;51.512;5.494;2022-10-17T08:38:43;20.80;99.90
13808;DHT22;40769;51.512;5.494;2022-10-17T08:46:51;20.80;99.90
13808;DHT22;40769;51.512;5.494;2022-10-17T08:49:42;20.70;99.90
13808;DHT22;40769;51.512;5.494;2022-10-17T08:52:29;20.60;99.90
13808;DHT22;40769;51.512;5.494;2022-10-17T08:54:57;20.50;99.90
13808;DHT22;40769;51.512;5.494;2022-10-17T08:57:24;20.50;99.90
13808;DHT22;40769;51.512;5.494;2022-10-17T08:59:52;20.40;99.90
13808;DHT22;40769;51.512;5.494;2022-10-17T09:02:36;20.30;99.90
13808;DHT22;40769;51.512;5.494;2022-10-17T09:08:07;20.20;99.90
13808;DHT22;40769;51.512;5.494;2022-10-17T09:13:21;20.20;99.90
13808;DHT22;40769;51.512;5.494;2022-10-17T09:16:10;20.20;99.90
13808;DHT22;40769;51.512;5.494;2022-10-17T09:18:42;20.20;99.90
13808;DHT22;40769;51.512;5.494;2022-10-17T09:21:34;20.20;99.90
13808;DHT22;40769;51.512;5.494;2022-10-17T09:24:03;20.20;99.90
13808;DHT22;40769;51.512;5.494;2022-10-17T09:26:32;20.10;99.90
13808;DHT22;40769;51.512;5.494;2022-10-17T09:28:58;20.00;99.90
13808;DHT22;40769;51.512;5.494;2022-10-17T09:31:29;19.90;99.90
13808;DHT22;40769;51.512;5.494;2022-10-17T09:34:00;19.70;99.90
13808;DHT22;40769;51.512;5.494;2022-10-17T09:36:29;19.60;99.90
13808;DHT22;40769;51.512;5.494;2022-10-17T09:39:04;19.50;99.90
13808;DHT22;40769;51.512;5.494;2022-10-17T09:41:39;19.50;99.90
13808;DHT22;40769;51.512;5.494;2022-10-17T09:49:32;19.30;99.90
13808;DHT22;40769;51.512;5.494;2022-10-17T09:52:00;19.70;99.90
13808;DHT22;40769;51.512;5.494;2022-10-17T09:54:42;19.20;99.90
13808;DHT22;40769;51.512;5.494;2022-10-17T09:57:10;19.30;99.90
13808;DHT22;40769;51.512;5.494;2022-10-17T10:07:20;19.20;99.90
13808;DHT22;40769;51.512;5.494;2022-10-17T10:09:47;19.20;99.90
13808;DHT22;40769;51.512;5.494;2022-10-17T10:12:21;19.20;99.90
13808;DHT22;40769;51.512;5.494;2022-10-17T10:14:47;19.20;99.90
13808;DHT22;40769;51.512;5.494;2022-10-17T10:19:57;19.20;99.90
13808;DHT22;40769;51.512;5.494;2022-10-17T10:22:23;19.10;99.90
13808;DHT22;40769;51.512;5.494;2022-10-17T10:27:31;18.90;99.90
13808;DHT22;40769;51.512;5.494;2022-10-17T10:29:57;18.90;99.90
13808;DHT22;40769;51.512;5.494;2022-10-17T10:32:34;18.80;99.90
13808;DHT22;40769;51.512;5.494;2022-10-17T10:35:39;18.80;99.90
13808;DHT22;40769;51.512;5.494;2022-10-17T10:38:10;18.80;99.90
13808;DHT22;40769;51.512;5.494;2022-10-17T10:40:50;18.90;99.90
13808;DHT22;40769;51.512;5.494;2022-10-17T10:43:33;18.70;99.90
13808;DHT22;40769;51.512;5.494;2022-10-17T10:45:59;18.80;99.90
13808;DHT22;40769;51.512;5.494;2022-10-17T10:48:33;18.80;99.90
13808;DHT22;40769;51.512;5.494;2022-10-17T10:51:01;18.80;99.90
13808;DHT22;40769;51.512;5.494;2022-10-17T10:59:23;18.90;99.90
13808;DHT22;40769;51.512;5.494;2022-10-17T11:12:59;19.60;99.90
13808;DHT22;40769;51.512;5.494;2022-10-17T11:15:43;19.70;99.90
13808;DHT22;40769;51.512;5.494;2022-10-17T11:20:58;19.10;99.90
13808;DHT22;40769;51.512;5.494;2022-10-17T11:23:39;20.00;99.90
13808;DHT22;40769;51.512;5.494;2022-10-17T11:26:10;20.00;99.90
13808;DHT22;40769;51.512;5.494;2022-10-17T11:28:37;20.10;99.90
13808;DHT22;40769;51.512;5.494;2022-10-17T11:31:10;20.10;99.90
13808;DHT22;40769;51.512;5.494;2022-10-17T11:33:56;20.10;99.90
13808;DHT22;40769;51.512;5.494;2022-10-17T11:36:35;20.10;99.90
13808;DHT22;40769;51.512;5.494;2022-10-17T11:39:18;20.30;99.90
13808;DHT22;40769;51.512;5.494;2022-10-17T11:41:48;20.00;99.90
13808;DHT22;40769;51.512;5.494;2022-10-17T11:44:35;20.20;99.90
13808;DHT22;40769;51.512;5.494;2022-10-17T11:47:26;20.20;99.90
13808;DHT22;40769;51.512;5.494;2022-10-17T11:50:19;20.20;99.90
13808;DHT22;40769;51.512;5.494;2022-10-17T11:52:51;20.20;99.90
13808;DHT22;40769;51.512;5.494;2022-10-17T11:58:14;20.20;99.90
13808;DHT22;40769;51.512;5.494;2022-10-17T12:06:56;20.20;99.90
13808;DHT22;40769;51.512;5.494;2022-10-17T12:09:29;20.20;99.90
13808;DHT22;40769;51.512;5.494;2022-10-17T12:11:58;20.20;99.90
13808;DHT22;40769;51.512;5.494;2022-10-17T12:23:33;20.20;99.90
13808;DHT22;40769;51.512;5.494;2022-10-17T12:25:35;20.20;99.90
13808;DHT22;40769;51.512;5.494;2022-10-17T12:30:58;20.30;99.90
13808;DHT22;40769;51.512;5.494;2022-10-17T12:33:37;20.30;99.90
13808;DHT22;40769;51.512;5.494;2022-10-17T12:39:39;20.30;99.90
13808;DHT22;40769;51.512;5.494;2022-10-17T12:46:57;20.50;99.90
13808;DHT22;40769;51.512;5.494;2022-10-17T12:49:36;20.50;99.90
13808;DHT22;40769;51.512;5.494;2022-10-17T12:59:57;20.70;99.90
13808;DHT22;40769;51.512;5.494;2022-10-17T13:02:26;20.70;99.90
13808;DHT22;40769;51.512;5.494;2022-10-17T13:05:10;20.70;99.90
13808;DHT22;40769;51.512;5.494;2022-10-17T13:07:41;20.70;99.90
13808;DHT22;40769;51.512;5.494;2022-10-17T13:10:18;20.70;99.90
13808;DHT22;40769;51.512;5.494;2022-10-17T13:12:49;20.80;99.90
13808;DHT22;40769;51.512;5.494;2022-10-17T13:15:17;20.80;99.90
13808;DHT22;40769;51.512;5.494;2022-10-17T13:17:43;20.80;99.90
13808;DHT22;40769;51.512;5.494;2022-10-17T13:20:20;20.80;99.90
13808;DHT22;40769;51.512;5.494;2022-10-17T13:22:49;20.70;99.90
13808;DHT22;40769;51.512;5.494;2022-10-17T13:25:18;20.70;99.90
13808;DHT22;40769;51.512;5.494;2022-10-17T13:27:44;20.70;99.90
13808;DHT22;40769;51.512;5.494;2022-10-17T13:32:49;20.60;99.90
13808;DHT22;40769;51.512;5.494;2022-10-17T13:35:22;20.60;99.90
13808;DHT22;40769;51.512;5.494;2022-10-17T13:37:49;20.60;99.90
13808;DHT22;40769;51.512;5.494;2022-10-17T13:40:22;20.60;99.90
13808;DHT22;40769;51.512;5.494;2022-10-17T13:42:50;20.50;99.90
13808;DHT22;40769;51.512;5.494;2022-10-17T13:45:29;20.40;99.90
13808;DHT22;40769;51.512;5.494;2022-10-17T13:47:57;20.40;99.90
13808;DHT22;40769;51.512;5.494;2022-10-17T13:50:34;20.40;99.90
13808;DHT22;40769;51.512;5.494;2022-10-17T13:53:11;20.30;99.90
13808;DHT22;40769;51.512;5.494;2022-10-17T13:55:51;20.30;99.90
13808;DHT22;40769;51.512;5.494;2022-10-17T13:58:17;20.20;99.90
13808;DHT22;40769;51.512;5.494;2022-10-17T14:00:43;20.20;99.90
13808;DHT22;40769;51.512;5.494;2022-10-17T14:03:10;20.20;99.90
13808;DHT22;40769;51.512;5.494;2022-10-17T14:06:00;20.20;99.90
13808;DHT22;40769;51.512;5.494;2022-10-17T14:08:26;20.20;99.90
13808;DHT22;40769;51.512;5.494;2022-10-17T14:10:52;20.20;99.90
13808;DHT22;40769;51.512;5.494;2022-10-17T14:13:28;20.20;99.90
13808;DHT22;40769;51.512;5.494;2022-10-17T14:15:58;20.30;99.90
13808;DHT22;40769;51.512;5.494;2022-10-17T14:18:28;20.30;99.90
13808;DHT22;40769;51.512;5.494;2022-10-17T14:20:54;20.30;99.90
13808;DHT22;40769;51.512;5.494;2022-10-17T14:28:30;20.40;99.90
13808;DHT22;40769;51.512;5.494;2022-10-17T14:33:42;20.40;99.90
13808;DHT22;40769;51.512;5.494;2022-10-17T14:36:08;20.50;99.90
13808;DHT22;40769;51.512;5.494;2022-10-17T14:38:34;20.50;99.90
13808;DHT22;40769;51.512;5.494;2022-10-17T14:41:05;20.60;99.90
13808;DHT22;40769;51.512;5.494;2022-10-17T14:43:33;20.60;99.90
13808;DHT22;40769;51.512;5.494;2022-10-17T14:46:00;20.60;99.90
13808;DHT22;40769;51.512;5.494;2022-10-17T14:48:27;20.80;99.90
13808;DHT22;40769;51.512;5.494;2022-10-17T14:51:14;20.60;99.90
13808;DHT22;40769;51.512;5.494;2022-10-17T14:53:42;20.70;99.90
13808;DHT22;40769;51.512;5.494;2022-10-17T14:56:26;20.70;99.90
13808;DHT22;40769;51.512;5.494;2022-10-17T14:58:52;20.70;99.90
13808;DHT22;40769;51.512;5.494;2022-10-17T15:01:17;20.70;99.90
13808;DHT22;40769;51.512;5.494;2022-10-17T15:03:43;20.90;99.90
13808;DHT22;40769;51.512;5.494;2022-10-17T15:06:17;21.50;99.90
13808;DHT22;40769;51.512;5.494;2022-10-17T15:08:43;20.90;99.90
13808;DHT22;40769;51.512;5.494;2022-10-17T15:11:10;20.80;99.90
13808;DHT22;40769;51.512;5.494;2022-10-17T15:13:35;20.70;99.90
13808;DHT22;40769;51.512;5.494;2022-10-17T15:16:01;20.70;99.90
13808;DHT22;40769;51.512;5.494;2022-10-17T15:18:26;20.70;99.90
13808;DHT22;40769;51.512;5.494;2022-10-17T15:20:52;20.70;99.90
13808;DHT22;40769;51.512;5.494;2022-10-17T15:23:17;20.70;99.90
13808;DHT22;40769;51.512;5.494;2022-10-17T15:25:43;20.70;99.90
13808;DHT22;40769;51.512;5.494;2022-10-17T15:28:12;20.70;99.90
13808;DHT22;40769;51.512;5.494;2022-10-17T15:30:37;20.70;99.90
13808;DHT22;40769;51.512;5.494;2022-10-17T15:33:03;20.80;99.90
13808;DHT22;40769;51.512;5.494;2022-10-17T15:35:29;20.80;99.90
13808;DHT22;40769;51.512;5.494;2022-10-17T15:37:55;20.80;99.90
13808;DHT22;40769;51.512;5.494;2022-10-17T15:40:26;20.80;99.90
13808;DHT22;40769;51.512;5.494;2022-10-17T15:42:53;20.70;99.90
13808;DHT22;40769;51.512;5.494;2022-10-17T15:45:21;20.80;99.90
13808;DHT22;40769;51.512;5.494;2022-10-17T15:47:53;20.80;99.90
13808;DHT22;40769;51.512;5.494;2022-10-17T15:50:19;20.80;99.90
13808;DHT22;40769;51.512;5.494;2022-10-17T15:52:46;20.70;99.90
13808;DHT22;40769;51.512;5.494;2022-10-17T15:55:12;20.70;99.90
13808;DHT22;40769;51.512;5.494;2022-10-17T15:57:41;20.70;99.90
13808;DHT22;40769;51.512;5.494;2022-10-17T16:00:21;20.70;99.90
13808;DHT22;40769;51.512;5.494;2022-10-17T16:02:48;20.70;99.90
13808;DHT22;40769;51.512;5.494;2022-10-17T16:05:19;20.70;99.90
13808;DHT22;40769;51.512;5.494;2022-10-17T16:07:50;20.60;99.90
13808;DHT22;40769;51.512;5.494;2022-10-17T16:10:18;20.60;99.90
13808;DHT22;40769;51.512;5.494;2022-10-17T16:12:48;20.60;99.90
13808;DHT22;40769;51.512;5.494;2022-10-17T16:15:23;20.50;99.90
13808;DHT22;40769;51.512;5.494;2022-10-17T16:17:53;20.50;99.90
13808;DHT22;40769;51.512;5.494;2022-10-17T16:20:19;20.50;99.90
13808;DHT22;40769;51.512;5.494;2022-10-17T16:22:45;20.40;99.90
13808;DHT22;40769;51.512;5.494;2022-10-17T16:25:26;20.40;99.90
13808;DHT22;40769;51.512;5.494;2022-10-17T16:27:56;20.30;99.90
13808;DHT22;40769;51.512;5.494;2022-10-17T16:30:24;20.30;99.90
13808;DHT22;40769;51.512;5.494;2022-10-17T16:32:51;20.20;99.90
13808;DHT22;40769;51.512;5.494;2022-10-17T16:35:19;20.30;99.90
13808;DHT22;40769;51.512;5.494;2022-10-17T16:37:45;20.20;99.90
13808;DHT22;40769;51.512;5.494;2022-10-17T16:40:12;20.30;99.90
13808;DHT22;40769;51.512;5.494;2022-10-17T16:42:38;20.20;99.90
13808;DHT22;40769;51.512;5.494;2022-10-17T16:45:04;20.20;99.90
13808;DHT22;40769;51.512;5.494;2022-10-17T16:47:30;20.20;99.90
13808;DHT22;40769;51.512;5.494;2022-10-17T16:49:55;19.40;99.90
13808;DHT22;40769;51.512;5.494;2022-10-17T16:52:21;20.10;99.90
13808;DHT22;40769;51.512;5.494;2022-10-17T16:54:46;20.10;99.90
13808;DHT22;40769;51.512;5.494;2022-10-17T16:57:12;20.10;99.90
13808;DHT22;40769;51.512;5.494;2022-10-17T16:59:38;20.10;99.90
13808;DHT22;40769;51.512;5.494;2022-10-17T17:02:03;19.90;99.90
13808;DHT22;40769;51.512;5.494;2022-10-17T17:04:34;20.30;99.90
13808;DHT22;40769;51.512;5.494;2022-10-17T17:06:59;20.00;99.90
13808;DHT22;40769;51.512;5.494;2022-10-17T17:09:25;20.00;99.90
13808;DHT22;40769;51.512;5.494;2022-10-17T17:11:50;20.00;99.90
13808;DHT22;40769;51.512;5.494;2022-10-17T17:14:16;20.00;99.90
13808;DHT22;40769;51.512;5.494;2022-10-17T17:16:41;20.00;99.90
13808;DHT22;40769;51.512;5.494;2022-10-17T17:19:11;20.00;99.90
13808;DHT22;40769;51.512;5.494;2022-10-17T17:21:37;19.90;99.90
13808;DHT22;40769;51.512;5.494;2022-10-17T17:24:03;19.90;99.90
13808;DHT22;40769;51.512;5.494;2022-10-17T17:26:31;19.90;99.90
13808;DHT22;40769;51.512;5.494;2022-10-17T17:28:59;19.90;99.90
13808;DHT22;40769;51.512;5.494;2022-10-17T17:31:27;19.90;99.90
13808;DHT22;40769;51.512;5.494;2022-10-17T17:33:53;19.90;99.90
13808;DHT22;40769;51.512;5.494;2022-10-17T17:36:27;19.90;99.90
13808;DHT22;40769;51.512;5.494;2022-10-17T17:38:55;19.90;99.90
13808;DHT22;40769;51.512;5.494;2022-10-17T17:41:21;19.90;99.90
13808;DHT22;40769;51.512;5.494;2022-10-17T17:43:48;19.90;99.90
13808;DHT22;40769;51.512;5.494;2022-10-17T17:46:18;19.80;99.90
13808;DHT22;40769;51.512;5.494;2022-10-17T17:48:45;20.00;99.90